sensor_id;sensor_type;location;lat;lon;timestamp;P1;durP1;ratioP1;P2;durP2;ratioP2
22017;SDS011;11173;51.050;7.108;2023-03-22T00:07:18;0.52;;;0.52;;
22017;SDS011;11173;51.050;7.108;2023-03-22T00:17:18;0.70;;;0.70;;
22017;SDS011;11173;51.050;7.108;2023-03-22T00:27:18;0.88;;;0.80;;
22017;SDS011;11173;51.050;7.108;2023-03-22T00:37:18;0.65;;;0.52;;
22017;SDS011;11173;51.050;7.108;2023-03-22T00:47:19;0.60;;;0.60;;
22017;SDS011;11173;51.050;7.108;2023-03-22T00:57:19;0.70;;;0.70;;
22017;SDS011;11173;51.050;7.108;2023-03-22T01:07:19;0.80;;;0.80;;
22017;SDS011;11173;51.050;7.108;2023-03-22T01:17:20;0.93;;;0.60;;
22017;SDS011;11173;51.050;7.108;2023-03-22T01:27:21;1.05;;;0.90;;
22017;SDS011;11173;51.050;7.108;2023-03-22T01:37:21;0.68;;;0.68;;
22017;SDS011;11173;51.050;7.108;2023-03-22T01:47:24;1.05;;;0.85;;
22017;SDS011;11173;51.050;7.108;2023-03-22T01:57:24;0.98;;;0.98;;
22017;SDS011;11173;51.050;7.108;2023-03-22T02:07:25;0.80;;;0.80;;
22017;SDS011;11173;51.050;7.108;2023-03-22T02:17:32;0.80;;;0.80;;
22017;SDS011;11173;51.050;7.108;2023-03-22T02:47:39;1.50;;;1.40;;
22017;SDS011;11173;51.050;7.108;2023-03-22T02:57:45;1.00;;;1.00;;
22017;SDS011;11173;51.050;7.108;2023-03-22T03:07:49;1.25;;;1.08;;
22017;SDS011;11173;51.050;7.108;2023-03-22T03:28:04;1.10;;;1.10;;
22017;SDS011;11173;51.050;7.108;2023-03-22T03:48:08;1.00;;;1.00;;
22017;SDS011;11173;51.050;7.108;2023-03-22T03:58:10;1.40;;;1.33;;
22017;SDS011;11173;51.050;7.108;2023-03-22T04:08:10;1.08;;;1.08;;
22017;SDS011;11173;51.050;7.108;2023-03-22T04:18:11;0.90;;;0.90;;
22017;SDS011;11173;51.050;7.108;2023-03-22T04:28:11;1.25;;;1.15;;
22017;SDS011;11173;51.050;7.108;2023-03-22T04:38:12;1.17;;;1.10;;
22017;SDS011;11173;51.050;7.108;2023-03-22T04:48:13;1.50;;;1.40;;
22017;SDS011;11173;51.050;7.108;2023-03-22T04:58:13;1.83;;;1.45;;
22017;SDS011;11173;51.050;7.108;2023-03-22T05:08:15;2.10;;;1.90;;
22017;SDS011;11173;51.050;7.108;2023-03-22T05:18:15;1.95;;;1.83;;
22017;SDS011;11173;51.050;7.108;2023-03-22T05:28:16;1.60;;;1.50;;
22017;SDS011;11173;51.050;7.108;2023-03-22T05:38:18;2.03;;;1.92;;
22017;SDS011;11173;51.050;7.108;2023-03-22T05:48:18;1.58;;;1.48;;
22017;SDS011;11173;51.050;7.108;2023-03-22T05:58:19;1.55;;;1.13;;
22017;SDS011;11173;51.050;7.108;2023-03-22T06:08:20;1.50;;;1.40;;
22017;SDS011;11173;51.050;7.108;2023-03-22T06:18:20;1.73;;;1.63;;
22017;SDS011;11173;51.050;7.108;2023-03-22T06:28:20;1.55;;;1.05;;
22017;SDS011;11173;51.050;7.108;2023-03-22T06:38:20;1.33;;;1.20;;
22017;SDS011;11173;51.050;7.108;2023-03-22T06:48:20;1.05;;;0.70;;
22017;SDS011;11173;51.050;7.108;2023-03-22T06:58:21;0.82;;;0.50;;
22017;SDS011;11173;51.050;7.108;2023-03-22T07:08:21;1.13;;;0.75;;
22017;SDS011;11173;51.050;7.108;2023-03-22T07:18:22;0.77;;;0.77;;
22017;SDS011;11173;51.050;7.108;2023-03-22T07:28:22;0.65;;;0.50;;
22017;SDS011;11173;51.050;7.108;2023-03-22T07:38:22;0.40;;;0.40;;
22017;SDS011;11173;51.050;7.108;2023-03-22T07:48:23;0.40;;;0.40;;
22017;SDS011;11173;51.050;7.108;2023-03-22T07:58:23;0.80;;;0.77;;
22017;SDS011;11173;51.050;7.108;2023-03-22T08:08:23;0.77;;;0.60;;
22017;SDS011;11173;51.050;7.108;2023-03-22T08:18:24;0.40;;;0.40;;
22017;SDS011;11173;51.050;7.108;2023-03-22T08:28:24;0.70;;;0.60;;
22017;SDS011;11173;51.050;7.108;2023-03-22T08:38:25;0.40;;;0.40;;
22017;SDS011;11173;51.050;7.108;2023-03-22T08:48:25;0.57;;;0.50;;
22017;SDS011;11173;51.050;7.108;2023-03-22T08:58:28;1.40;;;0.50;;
22017;SDS011;11173;51.050;7.108;2023-03-22T09:08:28;1.02;;;0.40;;
22017;SDS011;11173;51.050;7.108;2023-03-22T09:18:29;0.82;;;0.60;;
22017;SDS011;11173;51.050;7.108;2023-03-22T09:28:29;1.55;;;0.52;;
22017;SDS011;11173;51.050;7.108;2023-03-22T09:38:29;0.93;;;0.40;;
22017;SDS011;11173;51.050;7.108;2023-03-22T09:48:33;0.68;;;0.47;;
22017;SDS011;11173;51.050;7.108;2023-03-22T09:58:37;2.55;;;0.40;;
22017;SDS011;11173;51.050;7.108;2023-03-22T10:18:45;1.17;;;0.43;;
22017;SDS011;11173;51.050;7.108;2023-03-22T10:29:00;1.98;;;0.57;;
22017;SDS011;11173;51.050;7.108;2023-03-22T10:39:05;1.60;;;0.57;;
22017;SDS011;11173;51.050;7.108;2023-03-22T10:49:12;0.50;;;0.35;;
22017;SDS011;11173;51.050;7.108;2023-03-22T11:09:33;0.50;;;0.30;;
22017;SDS011;11173;51.050;7.108;2023-03-22T11:19:34;0.80;;;0.40;;
22017;SDS011;11173;51.050;7.108;2023-03-22T11:29:39;0.75;;;0.43;;
22017;SDS011;11173;51.050;7.108;2023-03-22T11:39:45;0.38;;;0.25;;
22017;SDS011;11173;51.050;7.108;2023-03-22T11:49:46;0.38;;;0.20;;
22017;SDS011;11173;51.050;7.108;2023-03-22T12:20:37;1.40;;;0.40;;
22017;SDS011;11173;51.050;7.108;2023-03-22T12:30:46;1.70;;;0.50;;
22017;SDS011;11173;51.050;7.108;2023-03-22T12:40:47;0.38;;;0.20;;
22017;SDS011;11173;51.050;7.108;2023-03-22T12:50:51;0.70;;;0.40;;
22017;SDS011;11173;51.050;7.108;2023-03-22T13:00:59;1.00;;;0.40;;
22017;SDS011;11173;51.050;7.108;2023-03-22T13:11:05;0.30;;;0.30;;
22017;SDS011;11173;51.050;7.108;2023-03-22T13:21:21;0.55;;;0.30;;
22017;SDS011;11173;51.050;7.108;2023-03-22T13:31:30;0.30;;;0.28;;
22017;SDS011;11173;51.050;7.108;2023-03-22T13:41:33;2.00;;;0.28;;
22017;SDS011;11173;51.050;7.108;2023-03-22T13:51:33;0.30;;;0.17;;
22017;SDS011;11173;51.050;7.108;2023-03-22T14:01:40;0.20;;;0.20;;
22017;SDS011;11173;51.050;7.108;2023-03-22T14:11:54;2.17;;;0.52;;
22017;SDS011;11173;51.050;7.108;2023-03-22T14:21:58;1.30;;;0.30;;
22017;SDS011;11173;51.050;7.108;2023-03-22T14:32:01;0.90;;;0.30;;
22017;SDS011;11173;51.050;7.108;2023-03-22T14:42:07;0.65;;;0.25;;
22017;SDS011;11173;51.050;7.108;2023-03-22T14:52:20;1.08;;;0.50;;
22017;SDS011;11173;51.050;7.108;2023-03-22T15:12:34;0.85;;;0.20;;
22017;SDS011;11173;51.050;7.108;2023-03-22T15:22:36;0.90;;;0.30;;
22017;SDS011;11173;51.050;7.108;2023-03-22T15:32:39;0.57;;;0.40;;
22017;SDS011;11173;51.050;7.108;2023-03-22T15:42:40;0.38;;;0.22;;
22017;SDS011;11173;51.050;7.108;2023-03-22T15:52:52;1.58;;;0.63;;
22017;SDS011;11173;51.050;7.108;2023-03-22T16:13:14;1.42;;;0.40;;
22017;SDS011;11173;51.050;7.108;2023-03-22T16:23:17;0.35;;;0.28;;
22017;SDS011;11173;51.050;7.108;2023-03-22T16:33:19;1.27;;;0.30;;
22017;SDS011;11173;51.050;7.108;2023-03-22T16:43:19;0.10;;;0.10;;
22017;SDS011;11173;51.050;7.108;2023-03-22T16:53:19;0.30;;;0.30;;
22017;SDS011;11173;51.050;7.108;2023-03-22T17:03:20;0.20;;;0.20;;
22017;SDS011;11173;51.050;7.108;2023-03-22T17:13:21;0.20;;;0.20;;
22017;SDS011;11173;51.050;7.108;2023-03-22T17:23:22;0.40;;;0.28;;
22017;SDS011;11173;51.050;7.108;2023-03-22T17:33:22;2.75;;;0.30;;
22017;SDS011;11173;51.050;7.108;2023-03-22T17:43:22;0.80;;;0.30;;
22017;SDS011;11173;51.050;7.108;2023-03-22T17:53:24;0.38;;;0.38;;
22017;SDS011;11173;51.050;7.108;2023-03-22T18:03:24;0.88;;;0.30;;
22017;SDS011;11173;51.050;7.108;2023-03-22T18:13:25;0.30;;;0.30;;
22017;SDS011;11173;51.050;7.108;2023-03-22T18:23:25;0.52;;;0.50;;
22017;SDS011;11173;51.050;7.108;2023-03-22T18:33:25;0.50;;;0.50;;
22017;SDS011;11173;51.050;7.108;2023-03-22T18:43:26;0.28;;;0.25;;
22017;SDS011;11173;51.050;7.108;2023-03-22T18:53:26;1.25;;;0.60;;
22017;SDS011;11173;51.050;7.108;2023-03-22T19:03:26;1.30;;;0.55;;
22017;SDS011;11173;51.050;7.108;2023-03-22T19:13:26;0.40;;;0.40;;
22017;SDS011;11173;51.050;7.108;2023-03-22T19:23:27;0.55;;;0.40;;
22017;SDS011;11173;51.050;7.108;2023-03-22T19:33:28;0.77;;;0.65;;
22017;SDS011;11173;51.050;7.108;2023-03-22T19:43:28;0.55;;;0.40;;
22017;SDS011;11173;51.050;7.108;2023-03-22T19:53:29;0.40;;;0.40;;
22017;SDS011;11173;51.050;7.108;2023-03-22T20:03:29;0.32;;;0.32;;
22017;SDS011;11173;51.050;7.108;2023-03-22T20:13:29;0.52;;;0.40;;
22017;SDS011;11173;51.050;7.108;2023-03-22T20:23:30;0.70;;;0.45;;
22017;SDS011;11173;51.050;7.108;2023-03-22T20:33:31;0.35;;;0.30;;
22017;SDS011;11173;51.050;7.108;2023-03-22T20:43:31;0.10;;;0.10;;
22017;SDS011;11173;51.050;7.108;2023-03-22T20:53:31;0.20;;;0.20;;
22017;SDS011;11173;51.050;7.108;2023-03-22T21:03:32;0.63;;;0.30;;
22017;SDS011;11173;51.050;7.108;2023-03-22T21:13:33;0.95;;;0.57;;
22017;SDS011;11173;51.050;7.108;2023-03-22T21:23:33;0.30;;;0.30;;
22017;SDS011;11173;51.050;7.108;2023-03-22T21:33:34;0.30;;;0.30;;
22017;SDS011;11173;51.050;7.108;2023-03-22T21:43:35;0.30;;;0.30;;
22017;SDS011;11173;51.050;7.108;2023-03-22T21:53:37;0.47;;;0.30;;
22017;SDS011;11173;51.050;7.108;2023-03-22T22:03:37;0.30;;;0.30;;
22017;SDS011;11173;51.050;7.108;2023-03-22T22:13:38;0.45;;;0.30;;
22017;SDS011;11173;51.050;7.108;2023-03-22T22:23:39;0.60;;;0.55;;
22017;SDS011;11173;51.050;7.108;2023-03-22T22:33:40;0.70;;;0.40;;
22017;SDS011;11173;51.050;7.108;2023-03-22T22:43:41;0.85;;;0.40;;
22017;SDS011;11173;51.050;7.108;2023-03-22T22:53:41;0.40;;;0.40;;
22017;SDS011;11173;51.050;7.108;2023-03-22T23:03:43;0.60;;;0.50;;
22017;SDS011;11173;51.050;7.108;2023-03-22T23:13:43;0.40;;;0.40;;
22017;SDS011;11173;51.050;7.108;2023-03-22T23:23:47;1.55;;;0.55;;
22017;SDS011;11173;51.050;7.108;2023-03-22T23:33:48;0.50;;;0.50;;
22017;SDS011;11173;51.050;7.108;2023-03-22T23:43:48;0.40;;;0.40;;
22017;SDS011;11173;51.050;7.108;2023-03-22T23:53:49;0.55;;;0.30;;
